sensor_id;sensor_type;location;lat;lon;timestamp;temperature;humidity
56256;DHT22;57229;51.432;-2.598;2023-08-20T00:01:12;15.80;99.90
56256;DHT22;57229;51.432;-2.598;2023-08-20T00:03:40;15.70;99.90
56256;DHT22;57229;51.432;-2.598;2023-08-20T00:06:10;15.70;99.90
56256;DHT22;57229;51.432;-2.598;2023-08-20T00:08:36;15.70;99.90
56256;DHT22;57229;51.432;-2.598;2023-08-20T00:11:02;15.80;99.90
56256;DHT22;57229;51.432;-2.598;2023-08-20T00:13:28;15.70;99.90
56256;DHT22;57229;51.432;-2.598;2023-08-20T00:15:54;15.60;99.90
56256;DHT22;57229;51.432;-2.598;2023-08-20T00:18:19;15.60;99.90
56256;DHT22;57229;51.432;-2.598;2023-08-20T00:20:45;15.60;99.90
56256;DHT22;57229;51.432;-2.598;2023-08-20T00:23:11;15.60;99.90
56256;DHT22;57229;51.432;-2.598;2023-08-20T00:25:37;15.60;99.90
56256;DHT22;57229;51.432;-2.598;2023-08-20T00:28:03;15.60;99.90
56256;DHT22;57229;51.432;-2.598;2023-08-20T00:30:29;15.50;99.90
56256;DHT22;57229;51.432;-2.598;2023-08-20T00:32:54;15.60;99.90
56256;DHT22;57229;51.432;-2.598;2023-08-20T00:35:21;15.50;99.90
56256;DHT22;57229;51.432;-2.598;2023-08-20T00:37:47;15.50;99.90
56256;DHT22;57229;51.432;-2.598;2023-08-20T00:40:12;15.50;99.90
56256;DHT22;57229;51.432;-2.598;2023-08-20T00:42:38;15.30;99.90
56256;DHT22;57229;51.432;-2.598;2023-08-20T00:45:04;15.30;99.90
56256;DHT22;57229;51.432;-2.598;2023-08-20T00:47:30;15.20;99.90
56256;DHT22;57229;51.432;-2.598;2023-08-20T00:49:56;15.20;99.90
56256;DHT22;57229;51.432;-2.598;2023-08-20T00:52:22;15.20;99.90
56256;DHT22;57229;51.432;-2.598;2023-08-20T00:54:49;15.20;99.90
56256;DHT22;57229;51.432;-2.598;2023-08-20T00:57:17;15.10;99.90
56256;DHT22;57229;51.432;-2.598;2023-08-20T00:59:43;15.20;99.90
56256;DHT22;57229;51.432;-2.598;2023-08-20T01:02:10;15.20;99.90
56256;DHT22;57229;51.432;-2.598;2023-08-20T01:04:36;15.30;99.90
56256;DHT22;57229;51.432;-2.598;2023-08-20T01:07:48;15.20;99.90
56256;DHT22;57229;51.432;-2.598;2023-08-20T01:12:31;15.20;99.90
56256;DHT22;57229;51.432;-2.598;2023-08-20T01:14:58;15.20;99.90
56256;DHT22;57229;51.432;-2.598;2023-08-20T01:17:23;15.20;99.90
56256;DHT22;57229;51.432;-2.598;2023-08-20T01:19:49;15.20;99.90
56256;DHT22;57229;51.432;-2.598;2023-08-20T01:30:35;15.10;99.90
56256;DHT22;57229;51.432;-2.598;2023-08-20T01:33:02;15.10;99.90
56256;DHT22;57229;51.432;-2.598;2023-08-20T01:35:28;15.10;99.90
56256;DHT22;57229;51.432;-2.598;2023-08-20T01:37:53;15.10;99.90
56256;DHT22;57229;51.432;-2.598;2023-08-20T01:40:19;15.10;99.90
56256;DHT22;57229;51.432;-2.598;2023-08-20T01:42:45;15.00;99.90
56256;DHT22;57229;51.432;-2.598;2023-08-20T01:45:10;15.00;99.90
56256;DHT22;57229;51.432;-2.598;2023-08-20T01:47:36;14.90;99.90
56256;DHT22;57229;51.432;-2.598;2023-08-20T01:50:02;15.00;99.90
56256;DHT22;57229;51.432;-2.598;2023-08-20T01:52:28;15.10;99.90
56256;DHT22;57229;51.432;-2.598;2023-08-20T01:54:55;15.10;99.90
56256;DHT22;57229;51.432;-2.598;2023-08-20T01:57:20;15.10;99.90
56256;DHT22;57229;51.432;-2.598;2023-08-20T01:59:47;15.10;99.90
56256;DHT22;57229;51.432;-2.598;2023-08-20T02:02:13;15.10;99.90
56256;DHT22;57229;51.432;-2.598;2023-08-20T02:04:38;15.10;99.90
56256;DHT22;57229;51.432;-2.598;2023-08-20T02:07:04;15.10;99.90
56256;DHT22;57229;51.432;-2.598;2023-08-20T02:09:30;15.00;99.90
56256;DHT22;57229;51.432;-2.598;2023-08-20T02:11:55;15.00;99.90
56256;DHT22;57229;51.432;-2.598;2023-08-20T02:14:21;15.00;99.90
56256;DHT22;57229;51.432;-2.598;2023-08-20T02:16:47;14.90;99.90
56256;DHT22;57229;51.432;-2.598;2023-08-20T02:19:12;14.90;99.90
56256;DHT22;57229;51.432;-2.598;2023-08-20T02:21:39;14.80;99.90
56256;DHT22;57229;51.432;-2.598;2023-08-20T02:24:05;14.80;99.90
56256;DHT22;57229;51.432;-2.598;2023-08-20T02:26:31;14.70;99.90
56256;DHT22;57229;51.432;-2.598;2023-08-20T02:28:56;14.70;99.90
56256;DHT22;57229;51.432;-2.598;2023-08-20T02:31:22;14.70;99.90
56256;DHT22;57229;51.432;-2.598;2023-08-20T02:33:48;14.70;99.90
56256;DHT22;57229;51.432;-2.598;2023-08-20T02:36:19;14.60;99.90
56256;DHT22;57229;51.432;-2.598;2023-08-20T02:38:45;14.60;99.90
56256;DHT22;57229;51.432;-2.598;2023-08-20T02:41:11;14.60;99.90
56256;DHT22;57229;51.432;-2.598;2023-08-20T02:43:37;14.50;99.90
56256;DHT22;57229;51.432;-2.598;2023-08-20T02:46:03;14.50;99.90
56256;DHT22;57229;51.432;-2.598;2023-08-20T02:48:29;14.50;99.90
56256;DHT22;57229;51.432;-2.598;2023-08-20T02:50:55;14.40;99.90
56256;DHT22;57229;51.432;-2.598;2023-08-20T02:53:22;14.40;99.90
56256;DHT22;57229;51.432;-2.598;2023-08-20T02:55:48;14.30;99.90
56256;DHT22;57229;51.432;-2.598;2023-08-20T02:58:14;14.30;99.90
56256;DHT22;57229;51.432;-2.598;2023-08-20T03:00:40;14.30;99.90
56256;DHT22;57229;51.432;-2.598;2023-08-20T03:03:07;14.20;99.90
56256;DHT22;57229;51.432;-2.598;2023-08-20T03:05:34;14.20;99.90
56256;DHT22;57229;51.432;-2.598;2023-08-20T03:08:00;14.20;99.90
56256;DHT22;57229;51.432;-2.598;2023-08-20T03:10:27;14.20;99.90
56256;DHT22;57229;51.432;-2.598;2023-08-20T03:12:53;14.20;99.90
56256;DHT22;57229;51.432;-2.598;2023-08-20T03:15:18;14.20;99.90
56256;DHT22;57229;51.432;-2.598;2023-08-20T03:17:44;14.10;99.90
56256;DHT22;57229;51.432;-2.598;2023-08-20T03:20:10;14.10;99.90
56256;DHT22;57229;51.432;-2.598;2023-08-20T03:22:43;14.10;99.90
56256;DHT22;57229;51.432;-2.598;2023-08-20T03:25:26;14.10;99.90
56256;DHT22;57229;51.432;-2.598;2023-08-20T03:27:52;14.10;99.90
56256;DHT22;57229;51.432;-2.598;2023-08-20T03:30:18;14.10;99.90
56256;DHT22;57229;51.432;-2.598;2023-08-20T03:32:44;14.10;99.90
56256;DHT22;57229;51.432;-2.598;2023-08-20T03:35:10;14.30;99.90
56256;DHT22;57229;51.432;-2.598;2023-08-20T03:37:35;14.40;99.90
56256;DHT22;57229;51.432;-2.598;2023-08-20T03:40:02;14.50;99.90
56256;DHT22;57229;51.432;-2.598;2023-08-20T03:42:30;14.50;99.90
56256;DHT22;57229;51.432;-2.598;2023-08-20T03:44:56;14.40;99.90
56256;DHT22;57229;51.432;-2.598;2023-08-20T03:47:21;14.30;99.90
56256;DHT22;57229;51.432;-2.598;2023-08-20T03:49:47;14.20;99.90
56256;DHT22;57229;51.432;-2.598;2023-08-20T03:52:13;14.30;99.90
56256;DHT22;57229;51.432;-2.598;2023-08-20T03:54:39;14.40;99.90
56256;DHT22;57229;51.432;-2.598;2023-08-20T03:57:05;14.40;99.90
56256;DHT22;57229;51.432;-2.598;2023-08-20T03:59:30;14.40;99.90
56256;DHT22;57229;51.432;-2.598;2023-08-20T04:01:56;14.40;99.90
56256;DHT22;57229;51.432;-2.598;2023-08-20T04:04:22;14.30;99.90
56256;DHT22;57229;51.432;-2.598;2023-08-20T04:06:48;14.20;99.90
56256;DHT22;57229;51.432;-2.598;2023-08-20T04:09:13;14.20;99.90
56256;DHT22;57229;51.432;-2.598;2023-08-20T04:11:39;14.20;99.90
56256;DHT22;57229;51.432;-2.598;2023-08-20T04:14:05;14.20;99.90
56256;DHT22;57229;51.432;-2.598;2023-08-20T04:16:30;14.10;99.90
56256;DHT22;57229;51.432;-2.598;2023-08-20T04:18:56;14.00;99.90
56256;DHT22;57229;51.432;-2.598;2023-08-20T04:21:22;14.10;99.90
56256;DHT22;57229;51.432;-2.598;2023-08-20T04:23:47;14.00;99.90
56256;DHT22;57229;51.432;-2.598;2023-08-20T04:26:13;14.00;99.90
56256;DHT22;57229;51.432;-2.598;2023-08-20T04:28:39;13.90;99.90
56256;DHT22;57229;51.432;-2.598;2023-08-20T04:31:04;13.90;99.90
56256;DHT22;57229;51.432;-2.598;2023-08-20T04:33:30;13.90;99.90
56256;DHT22;57229;51.432;-2.598;2023-08-20T04:35:55;13.80;99.90
56256;DHT22;57229;51.432;-2.598;2023-08-20T04:38:21;13.80;99.90
56256;DHT22;57229;51.432;-2.598;2023-08-20T04:40:48;13.80;99.90
56256;DHT22;57229;51.432;-2.598;2023-08-20T04:43:14;13.80;99.90
56256;DHT22;57229;51.432;-2.598;2023-08-20T04:45:40;13.80;99.90
56256;DHT22;57229;51.432;-2.598;2023-08-20T04:48:06;13.70;99.90
56256;DHT22;57229;51.432;-2.598;2023-08-20T04:50:32;13.80;99.90
56256;DHT22;57229;51.432;-2.598;2023-08-20T04:52:58;13.60;99.90
56256;DHT22;57229;51.432;-2.598;2023-08-20T04:55:25;13.60;99.90
56256;DHT22;57229;51.432;-2.598;2023-08-20T04:57:51;13.60;99.90
56256;DHT22;57229;51.432;-2.598;2023-08-20T05:00:17;13.50;99.90
56256;DHT22;57229;51.432;-2.598;2023-08-20T05:02:42;13.50;99.90
56256;DHT22;57229;51.432;-2.598;2023-08-20T05:05:08;13.50;99.90
56256;DHT22;57229;51.432;-2.598;2023-08-20T05:07:33;13.50;99.90
56256;DHT22;57229;51.432;-2.598;2023-08-20T05:09:59;13.50;99.90
56256;DHT22;57229;51.432;-2.598;2023-08-20T05:12:25;13.50;99.90
56256;DHT22;57229;51.432;-2.598;2023-08-20T05:14:50;13.50;99.90
56256;DHT22;57229;51.432;-2.598;2023-08-20T05:17:16;13.50;99.90
56256;DHT22;57229;51.432;-2.598;2023-08-20T05:19:42;13.60;99.90
56256;DHT22;57229;51.432;-2.598;2023-08-20T05:22:07;13.70;99.90
56256;DHT22;57229;51.432;-2.598;2023-08-20T05:24:33;13.70;99.90
56256;DHT22;57229;51.432;-2.598;2023-08-20T05:29:31;13.70;99.90
56256;DHT22;57229;51.432;-2.598;2023-08-20T05:31:57;13.60;99.90
56256;DHT22;57229;51.432;-2.598;2023-08-20T05:34:22;13.70;99.90
56256;DHT22;57229;51.432;-2.598;2023-08-20T05:36:48;13.70;99.90
56256;DHT22;57229;51.432;-2.598;2023-08-20T05:39:13;13.70;99.90
56256;DHT22;57229;51.432;-2.598;2023-08-20T05:41:39;13.80;99.90
56256;DHT22;57229;51.432;-2.598;2023-08-20T05:44:05;13.80;99.90
56256;DHT22;57229;51.432;-2.598;2023-08-20T05:46:30;13.80;99.90
56256;DHT22;57229;51.432;-2.598;2023-08-20T05:48:56;13.90;99.90
56256;DHT22;57229;51.432;-2.598;2023-08-20T05:51:21;14.00;99.90
56256;DHT22;57229;51.432;-2.598;2023-08-20T05:53:47;14.20;99.90
56256;DHT22;57229;51.432;-2.598;2023-08-20T05:56:12;14.40;99.90
56256;DHT22;57229;51.432;-2.598;2023-08-20T05:58:38;14.60;99.90
56256;DHT22;57229;51.432;-2.598;2023-08-20T06:01:04;14.80;99.90
56256;DHT22;57229;51.432;-2.598;2023-08-20T06:03:29;14.90;99.90
56256;DHT22;57229;51.432;-2.598;2023-08-20T06:05:57;15.10;99.90
56256;DHT22;57229;51.432;-2.598;2023-08-20T06:08:23;15.20;99.90
56256;DHT22;57229;51.432;-2.598;2023-08-20T06:10:48;15.20;99.90
56256;DHT22;57229;51.432;-2.598;2023-08-20T06:13:14;15.30;99.90
56256;DHT22;57229;51.432;-2.598;2023-08-20T06:15:39;15.30;99.90
56256;DHT22;57229;51.432;-2.598;2023-08-20T06:18:05;15.40;99.90
56256;DHT22;57229;51.432;-2.598;2023-08-20T06:20:31;15.40;99.90
56256;DHT22;57229;51.432;-2.598;2023-08-20T06:22:56;15.40;99.90
56256;DHT22;57229;51.432;-2.598;2023-08-20T06:25:22;15.40;99.90
56256;DHT22;57229;51.432;-2.598;2023-08-20T06:27:47;15.50;99.90
56256;DHT22;57229;51.432;-2.598;2023-08-20T06:30:13;15.50;99.90
56256;DHT22;57229;51.432;-2.598;2023-08-20T06:32:39;15.60;99.90
56256;DHT22;57229;51.432;-2.598;2023-08-20T06:35:05;15.60;99.90
56256;DHT22;57229;51.432;-2.598;2023-08-20T06:37:30;15.70;99.90
56256;DHT22;57229;51.432;-2.598;2023-08-20T06:39:56;15.90;99.90
56256;DHT22;57229;51.432;-2.598;2023-08-20T06:42:22;16.00;99.90
56256;DHT22;57229;51.432;-2.598;2023-08-20T06:44:47;16.20;99.90
56256;DHT22;57229;51.432;-2.598;2023-08-20T06:47:13;16.30;99.90
56256;DHT22;57229;51.432;-2.598;2023-08-20T06:49:40;16.40;99.90
56256;DHT22;57229;51.432;-2.598;2023-08-20T06:52:06;16.60;99.90
56256;DHT22;57229;51.432;-2.598;2023-08-20T06:54:31;16.70;99.90
56256;DHT22;57229;51.432;-2.598;2023-08-20T06:56:57;16.80;99.90
56256;DHT22;57229;51.432;-2.598;2023-08-20T06:59:22;17.00;99.90
56256;DHT22;57229;51.432;-2.598;2023-08-20T07:01:48;17.20;99.90
56256;DHT22;57229;51.432;-2.598;2023-08-20T07:04:14;17.30;99.90
56256;DHT22;57229;51.432;-2.598;2023-08-20T07:06:40;17.40;99.90
56256;DHT22;57229;51.432;-2.598;2023-08-20T07:09:05;17.50;99.90
56256;DHT22;57229;51.432;-2.598;2023-08-20T07:11:31;17.50;99.90
56256;DHT22;57229;51.432;-2.598;2023-08-20T07:13:56;17.50;99.90
56256;DHT22;57229;51.432;-2.598;2023-08-20T07:16:22;17.60;99.90
56256;DHT22;57229;51.432;-2.598;2023-08-20T07:18:47;17.60;99.90
56256;DHT22;57229;51.432;-2.598;2023-08-20T07:21:13;17.50;99.90
56256;DHT22;57229;51.432;-2.598;2023-08-20T07:23:39;17.40;99.90
56256;DHT22;57229;51.432;-2.598;2023-08-20T07:26:09;17.40;99.90
56256;DHT22;57229;51.432;-2.598;2023-08-20T07:28:36;17.40;99.90
56256;DHT22;57229;51.432;-2.598;2023-08-20T07:31:34;17.30;99.90
56256;DHT22;57229;51.432;-2.598;2023-08-20T07:34:01;17.40;99.90
56256;DHT22;57229;51.432;-2.598;2023-08-20T07:36:31;17.40;99.90
56256;DHT22;57229;51.432;-2.598;2023-08-20T07:38:57;17.60;99.90
56256;DHT22;57229;51.432;-2.598;2023-08-20T07:41:22;17.90;99.90
56256;DHT22;57229;51.432;-2.598;2023-08-20T07:43:49;18.20;99.90
56256;DHT22;57229;51.432;-2.598;2023-08-20T07:46:15;18.30;99.90
56256;DHT22;57229;51.432;-2.598;2023-08-20T07:48:41;18.50;99.90
56256;DHT22;57229;51.432;-2.598;2023-08-20T07:51:07;18.70;99.90
56256;DHT22;57229;51.432;-2.598;2023-08-20T07:53:33;19.00;99.90
56256;DHT22;57229;51.432;-2.598;2023-08-20T07:56:02;19.40;99.90
56256;DHT22;57229;51.432;-2.598;2023-08-20T07:58:28;19.80;99.90
56256;DHT22;57229;51.432;-2.598;2023-08-20T08:00:54;19.90;99.90
56256;DHT22;57229;51.432;-2.598;2023-08-20T08:03:20;20.10;99.90
56256;DHT22;57229;51.432;-2.598;2023-08-20T08:05:50;20.30;99.90
56256;DHT22;57229;51.432;-2.598;2023-08-20T08:08:17;20.30;99.90
56256;DHT22;57229;51.432;-2.598;2023-08-20T08:10:43;20.60;99.90
56256;DHT22;57229;51.432;-2.598;2023-08-20T08:13:18;20.60;99.90
56256;DHT22;57229;51.432;-2.598;2023-08-20T08:15:44;20.90;99.90
56256;DHT22;57229;51.432;-2.598;2023-08-20T08:18:10;21.40;99.90
56256;DHT22;57229;51.432;-2.598;2023-08-20T08:20:35;21.50;99.90
56256;DHT22;57229;51.432;-2.598;2023-08-20T08:23:01;21.30;99.90
56256;DHT22;57229;51.432;-2.598;2023-08-20T08:25:29;21.10;99.90
56256;DHT22;57229;51.432;-2.598;2023-08-20T08:27:54;20.90;99.90
56256;DHT22;57229;51.432;-2.598;2023-08-20T08:30:20;20.70;99.90
56256;DHT22;57229;51.432;-2.598;2023-08-20T08:32:46;20.60;99.90
56256;DHT22;57229;51.432;-2.598;2023-08-20T08:35:11;20.80;99.90
56256;DHT22;57229;51.432;-2.598;2023-08-20T08:37:37;20.70;99.90
56256;DHT22;57229;51.432;-2.598;2023-08-20T08:40:03;20.50;99.90
56256;DHT22;57229;51.432;-2.598;2023-08-20T08:42:33;20.90;99.90
56256;DHT22;57229;51.432;-2.598;2023-08-20T08:45:00;21.60;99.90
56256;DHT22;57229;51.432;-2.598;2023-08-20T08:47:26;22.50;99.90
56256;DHT22;57229;51.432;-2.598;2023-08-20T08:49:52;22.70;99.90
56256;DHT22;57229;51.432;-2.598;2023-08-20T08:52:21;22.80;99.90
56256;DHT22;57229;51.432;-2.598;2023-08-20T08:54:48;22.40;99.90
56256;DHT22;57229;51.432;-2.598;2023-08-20T08:57:14;21.90;99.90
56256;DHT22;57229;51.432;-2.598;2023-08-20T08:59:41;21.70;99.90
56256;DHT22;57229;51.432;-2.598;2023-08-20T09:02:09;21.40;99.90
56256;DHT22;57229;51.432;-2.598;2023-08-20T09:04:41;21.00;99.90
56256;DHT22;57229;51.432;-2.598;2023-08-20T09:07:16;20.70;99.90
56256;DHT22;57229;51.432;-2.598;2023-08-20T09:09:42;20.60;99.90
56256;DHT22;57229;51.432;-2.598;2023-08-20T09:12:15;20.50;99.90
56256;DHT22;57229;51.432;-2.598;2023-08-20T09:14:49;20.40;99.90
56256;DHT22;57229;51.432;-2.598;2023-08-20T09:17:15;20.30;99.90
56256;DHT22;57229;51.432;-2.598;2023-08-20T09:19:43;20.30;99.90
56256;DHT22;57229;51.432;-2.598;2023-08-20T09:22:11;20.60;99.90
56256;DHT22;57229;51.432;-2.598;2023-08-20T09:24:45;20.70;99.90
56256;DHT22;57229;51.432;-2.598;2023-08-20T09:27:12;20.70;99.90
56256;DHT22;57229;51.432;-2.598;2023-08-20T09:29:49;20.60;99.90
56256;DHT22;57229;51.432;-2.598;2023-08-20T09:32:20;20.40;99.90
56256;DHT22;57229;51.432;-2.598;2023-08-20T09:34:46;20.40;99.90
56256;DHT22;57229;51.432;-2.598;2023-08-20T09:37:13;20.40;99.90
56256;DHT22;57229;51.432;-2.598;2023-08-20T09:39:39;20.60;99.90
56256;DHT22;57229;51.432;-2.598;2023-08-20T09:42:06;21.10;99.90
56256;DHT22;57229;51.432;-2.598;2023-08-20T09:44:33;21.80;99.90
56256;DHT22;57229;51.432;-2.598;2023-08-20T09:47:09;23.90;99.90
56256;DHT22;57229;51.432;-2.598;2023-08-20T09:49:44;25.40;96.30
56256;DHT22;57229;51.432;-2.598;2023-08-20T09:52:11;25.40;95.40
56256;DHT22;57229;51.432;-2.598;2023-08-20T09:55:03;25.80;95.40
56256;DHT22;57229;51.432;-2.598;2023-08-20T09:57:35;26.40;94.40
56256;DHT22;57229;51.432;-2.598;2023-08-20T10:00:03;27.20;93.00
56256;DHT22;57229;51.432;-2.598;2023-08-20T10:02:31;27.30;92.60
56256;DHT22;57229;51.432;-2.598;2023-08-20T10:04:59;27.90;92.00
56256;DHT22;57229;51.432;-2.598;2023-08-20T10:07:29;28.70;90.40
56256;DHT22;57229;51.432;-2.598;2023-08-20T10:09:56;28.90;90.40
56256;DHT22;57229;51.432;-2.598;2023-08-20T10:12:26;29.00;89.00
56256;DHT22;57229;51.432;-2.598;2023-08-20T10:14:52;29.80;87.70
56256;DHT22;57229;51.432;-2.598;2023-08-20T10:17:18;29.70;86.90
56256;DHT22;57229;51.432;-2.598;2023-08-20T10:19:44;30.10;85.90
56256;DHT22;57229;51.432;-2.598;2023-08-20T10:22:09;30.60;85.20
56256;DHT22;57229;51.432;-2.598;2023-08-20T10:24:41;30.10;82.10
56256;DHT22;57229;51.432;-2.598;2023-08-20T10:27:08;28.40;85.70
56256;DHT22;57229;51.432;-2.598;2023-08-20T10:29:36;26.50;89.40
56256;DHT22;57229;51.432;-2.598;2023-08-20T10:32:06;25.80;91.20
56256;DHT22;57229;51.432;-2.598;2023-08-20T10:34:33;26.60;91.80
56256;DHT22;57229;51.432;-2.598;2023-08-20T10:37:14;28.10;90.40
56256;DHT22;57229;51.432;-2.598;2023-08-20T10:39:41;29.60;88.00
56256;DHT22;57229;51.432;-2.598;2023-08-20T10:45:06;30.30;85.20
56256;DHT22;57229;51.432;-2.598;2023-08-20T10:47:47;30.50;83.40
56256;DHT22;57229;51.432;-2.598;2023-08-20T10:50:18;29.50;84.10
56256;DHT22;57229;51.432;-2.598;2023-08-20T10:52:55;27.20;88.50
56256;DHT22;57229;51.432;-2.598;2023-08-20T10:55:24;26.60;90.50
56256;DHT22;57229;51.432;-2.598;2023-08-20T10:57:57;28.50;88.80
56256;DHT22;57229;51.432;-2.598;2023-08-20T11:00:24;30.10;85.10
56256;DHT22;57229;51.432;-2.598;2023-08-20T11:02:51;31.10;83.00
56256;DHT22;57229;51.432;-2.598;2023-08-20T11:05:18;30.30;83.00
56256;DHT22;57229;51.432;-2.598;2023-08-20T11:07:48;29.10;86.30
56256;DHT22;57229;51.432;-2.598;2023-08-20T11:10:15;29.60;84.70
56256;DHT22;57229;51.432;-2.598;2023-08-20T11:12:42;28.80;84.70
56256;DHT22;57229;51.432;-2.598;2023-08-20T11:15:09;28.30;85.80
56256;DHT22;57229;51.432;-2.598;2023-08-20T11:17:34;27.50;88.80
56256;DHT22;57229;51.432;-2.598;2023-08-20T11:20:01;28.60;87.70
56256;DHT22;57229;51.432;-2.598;2023-08-20T11:22:27;29.20;85.00
56256;DHT22;57229;51.432;-2.598;2023-08-20T11:24:52;28.90;86.10
56256;DHT22;57229;51.432;-2.598;2023-08-20T11:27:18;29.50;85.20
56256;DHT22;57229;51.432;-2.598;2023-08-20T11:29:44;30.00;84.20
56256;DHT22;57229;51.432;-2.598;2023-08-20T11:32:10;29.90;83.30
56256;DHT22;57229;51.432;-2.598;2023-08-20T11:34:36;29.70;85.20
56256;DHT22;57229;51.432;-2.598;2023-08-20T11:37:04;30.50;83.20
56256;DHT22;57229;51.432;-2.598;2023-08-20T11:39:30;30.70;81.70
56256;DHT22;57229;51.432;-2.598;2023-08-20T11:41:56;29.70;81.20
56256;DHT22;57229;51.432;-2.598;2023-08-20T11:44:23;29.30;83.60
56256;DHT22;57229;51.432;-2.598;2023-08-20T11:46:49;29.00;82.70
56256;DHT22;57229;51.432;-2.598;2023-08-20T11:49:14;27.60;85.20
56256;DHT22;57229;51.432;-2.598;2023-08-20T11:51:58;26.40;87.90
56256;DHT22;57229;51.432;-2.598;2023-08-20T11:54:24;25.50;90.40
56256;DHT22;57229;51.432;-2.598;2023-08-20T11:56:51;25.00;91.20
56256;DHT22;57229;51.432;-2.598;2023-08-20T11:59:19;24.70;91.60
56256;DHT22;57229;51.432;-2.598;2023-08-20T12:01:58;24.30;92.20
56256;DHT22;57229;51.432;-2.598;2023-08-20T12:04:26;24.30;92.70
56256;DHT22;57229;51.432;-2.598;2023-08-20T12:07:10;24.00;93.00
56256;DHT22;57229;51.432;-2.598;2023-08-20T12:09:38;24.00;92.90
56256;DHT22;57229;51.432;-2.598;2023-08-20T12:12:06;23.80;93.50
56256;DHT22;57229;51.432;-2.598;2023-08-20T12:14:32;23.60;94.10
56256;DHT22;57229;51.432;-2.598;2023-08-20T12:16:57;23.50;94.50
56256;DHT22;57229;51.432;-2.598;2023-08-20T12:19:24;23.40;94.80
56256;DHT22;57229;51.432;-2.598;2023-08-20T12:21:49;23.10;95.60
56256;DHT22;57229;51.432;-2.598;2023-08-20T12:24:15;22.70;96.50
56256;DHT22;57229;51.432;-2.598;2023-08-20T12:26:42;22.60;97.50
56256;DHT22;57229;51.432;-2.598;2023-08-20T12:29:07;22.10;98.10
56256;DHT22;57229;51.432;-2.598;2023-08-20T12:31:34;21.80;99.80
56256;DHT22;57229;51.432;-2.598;2023-08-20T12:33:59;21.40;99.90
56256;DHT22;57229;51.432;-2.598;2023-08-20T12:36:25;20.80;99.90
56256;DHT22;57229;51.432;-2.598;2023-08-20T12:38:51;20.10;99.90
56256;DHT22;57229;51.432;-2.598;2023-08-20T12:41:18;19.80;99.90
56256;DHT22;57229;51.432;-2.598;2023-08-20T12:43:43;19.50;99.90
56256;DHT22;57229;51.432;-2.598;2023-08-20T12:46:09;19.30;99.90
56256;DHT22;57229;51.432;-2.598;2023-08-20T12:48:35;19.20;99.90
56256;DHT22;57229;51.432;-2.598;2023-08-20T12:51:01;19.20;99.90
56256;DHT22;57229;51.432;-2.598;2023-08-20T12:53:28;19.00;99.90
56256;DHT22;57229;51.432;-2.598;2023-08-20T12:55:53;19.00;99.90
56256;DHT22;57229;51.432;-2.598;2023-08-20T12:58:19;19.00;99.90
56256;DHT22;57229;51.432;-2.598;2023-08-20T13:00:46;19.10;99.90
56256;DHT22;57229;51.432;-2.598;2023-08-20T13:03:12;19.20;99.90
56256;DHT22;57229;51.432;-2.598;2023-08-20T13:05:38;19.40;99.90
56256;DHT22;57229;51.432;-2.598;2023-08-20T13:08:04;19.70;99.90
56256;DHT22;57229;51.432;-2.598;2023-08-20T13:10:30;20.10;99.90
56256;DHT22;57229;51.432;-2.598;2023-08-20T13:13:00;20.90;99.90
56256;DHT22;57229;51.432;-2.598;2023-08-20T13:15:26;21.70;99.90
56256;DHT22;57229;51.432;-2.598;2023-08-20T13:17:51;22.60;99.90
56256;DHT22;57229;51.432;-2.598;2023-08-20T13:20:18;23.40;99.90
56256;DHT22;57229;51.432;-2.598;2023-08-20T13:22:48;24.60;99.90
56256;DHT22;57229;51.432;-2.598;2023-08-20T13:25:14;26.80;96.30
56256;DHT22;57229;51.432;-2.598;2023-08-20T13:27:40;28.10;95.80
56256;DHT22;57229;51.432;-2.598;2023-08-20T13:30:07;28.00;96.20
56256;DHT22;57229;51.432;-2.598;2023-08-20T13:32:34;27.50;95.80
56256;DHT22;57229;51.432;-2.598;2023-08-20T13:35:00;26.90;97.30
56256;DHT22;57229;51.432;-2.598;2023-08-20T13:37:25;26.40;97.10
56256;DHT22;57229;51.432;-2.598;2023-08-20T13:39:51;26.20;99.30
56256;DHT22;57229;51.432;-2.598;2023-08-20T13:42:16;26.20;98.00
56256;DHT22;57229;51.432;-2.598;2023-08-20T13:44:42;27.50;97.00
56256;DHT22;57229;51.432;-2.598;2023-08-20T13:47:08;29.90;95.40
56256;DHT22;57229;51.432;-2.598;2023-08-20T13:49:33;32.00;93.40
56256;DHT22;57229;51.432;-2.598;2023-08-20T13:51:59;33.60;90.00
56256;DHT22;57229;51.432;-2.598;2023-08-20T13:54:24;34.40;84.00
56256;DHT22;57229;51.432;-2.598;2023-08-20T13:56:50;35.10;80.90
56256;DHT22;57229;51.432;-2.598;2023-08-20T13:59:15;35.00;79.30
56256;DHT22;57229;51.432;-2.598;2023-08-20T14:01:41;34.80;80.20
56256;DHT22;57229;51.432;-2.598;2023-08-20T14:04:07;34.10;80.90
56256;DHT22;57229;51.432;-2.598;2023-08-20T14:06:32;34.10;79.90
56256;DHT22;57229;51.432;-2.598;2023-08-20T14:08:58;32.80;80.70
56256;DHT22;57229;51.432;-2.598;2023-08-20T14:11:23;32.60;81.20
56256;DHT22;57229;51.432;-2.598;2023-08-20T14:13:49;32.10;84.30
56256;DHT22;57229;51.432;-2.598;2023-08-20T14:16:15;32.70;82.90
56256;DHT22;57229;51.432;-2.598;2023-08-20T14:18:40;31.90;83.30
56256;DHT22;57229;51.432;-2.598;2023-08-20T14:21:06;30.60;86.50
56256;DHT22;57229;51.432;-2.598;2023-08-20T14:23:32;30.10;87.00
56256;DHT22;57229;51.432;-2.598;2023-08-20T14:25:58;30.00;89.40
56256;DHT22;57229;51.432;-2.598;2023-08-20T14:28:23;29.90;87.80
56256;DHT22;57229;51.432;-2.598;2023-08-20T14:30:49;29.20;90.20
56256;DHT22;57229;51.432;-2.598;2023-08-20T14:33:16;28.50;90.10
56256;DHT22;57229;51.432;-2.598;2023-08-20T14:35:42;29.10;90.50
56256;DHT22;57229;51.432;-2.598;2023-08-20T14:38:07;30.10;86.10
56256;DHT22;57229;51.432;-2.598;2023-08-20T14:40:36;30.20;85.60
56256;DHT22;57229;51.432;-2.598;2023-08-20T14:43:03;29.70;85.70
56256;DHT22;57229;51.432;-2.598;2023-08-20T14:45:29;28.60;88.30
56256;DHT22;57229;51.432;-2.598;2023-08-20T14:47:54;27.60;90.20
56256;DHT22;57229;51.432;-2.598;2023-08-20T14:50:20;27.10;90.70
56256;DHT22;57229;51.432;-2.598;2023-08-20T14:52:46;27.70;90.50
56256;DHT22;57229;51.432;-2.598;2023-08-20T14:55:20;29.20;90.40
56256;DHT22;57229;51.432;-2.598;2023-08-20T14:57:45;30.40;85.00
56256;DHT22;57229;51.432;-2.598;2023-08-20T15:00:12;29.80;85.90
56256;DHT22;57229;51.432;-2.598;2023-08-20T15:02:46;28.70;86.10
56256;DHT22;57229;51.432;-2.598;2023-08-20T15:05:12;27.40;90.40
56256;DHT22;57229;51.432;-2.598;2023-08-20T15:07:38;26.30;91.50
56256;DHT22;57229;51.432;-2.598;2023-08-20T15:10:04;25.40;93.20
56256;DHT22;57229;51.432;-2.598;2023-08-20T15:12:34;24.80;94.20
56256;DHT22;57229;51.432;-2.598;2023-08-20T15:15:01;24.60;95.40
56256;DHT22;57229;51.432;-2.598;2023-08-20T15:17:27;24.40;95.40
56256;DHT22;57229;51.432;-2.598;2023-08-20T15:19:52;24.00;96.40
56256;DHT22;57229;51.432;-2.598;2023-08-20T15:22:18;23.30;99.00
56256;DHT22;57229;51.432;-2.598;2023-08-20T15:24:44;22.50;99.90
56256;DHT22;57229;51.432;-2.598;2023-08-20T15:27:09;21.80;99.90
56256;DHT22;57229;51.432;-2.598;2023-08-20T15:29:37;21.40;99.90